Live aus Altenrhein
LIVE
LSZR 260520Z 32005KT 9999 -RA BKN007 03/03 Q1008 NOSIG RMK B

People´s Info Center:

Öffnungszeiten Mo-Fr, 8-18 Uhr

 

info@peoples.ch

 
Aus Österreich:

T: +43 (0)5572 203 610

 

Aus CH / LI / DE:

T: +41 (0)71 858 51 60

 

Webcam Flughafen St.Gallen-Altenrhein

Live-Bilder und Zeitraffer LSZR / ACH.

 

Live aus Altenrhein
LIVE
LSZR 260520Z 32005KT 9999 -RA BKN007 03/03 Q1008 NOSIG RMK B
Zeitraffer heute
2017-04-26 00:14:59
LSZR 252150Z AUTO 13005KT 9999 -RA OVC050 07/06 Q1007
Zeitraffer gestern
2017-04-25 00:14:52
LSZR 242150Z AUTO 29008KT CAVOK 12/06 Q1010
Zeitraffer vor 3 Tagen
2017-04-23 00:15:00
LSZR 222150Z AUTO 01010KT 9999 -RA BKN026 07/05 Q1023